SWA4052 KMCO-KPHL
Flight info
| Callsign | SWA4052 |
|---|---|
| Flight time | 2h 0m |
| Altitude | 37000 |
| Route | FATHE4 VIYAP Q87 JROSS Q135 RREGG Q117 SAWED Q97 ZJAAY JIIMS4 |
| Aircraft | B738/M-SDE2E3FGHIRWXY/LB1 |
Departure
| Time | 2026-04-21 01:05 |
|---|---|
| Airport | Orlando International Airport (KMCO) |
Arrival
| Time | 2026-04-21 03:06 |
|---|---|
| Airport | Philadelphia International Airport (KPHL) |
| Time | Latitude | Longitude | Altitude | Speed | Heading |
|---|---|---|---|---|---|
| 2026-04-21 00:31 | 28.43588 | -81.30363 | 104 ft | 0 kts | 182° |
| 2026-04-21 00:51 | 28.43591 | -81.30363 | 104 ft | 2 kts | 182° |
| 2026-04-21 00:51 | 28.43608 | -81.30362 | 104 ft | 2 kts | 182° |
| 2026-04-21 00:51 | 28.43624 | -81.30362 | 104 ft | 2 kts | 182° |
| 2026-04-21 00:51 | 28.43640 | -81.30361 | 104 ft | 2 kts | 171° |
| 2026-04-21 00:52 | 28.43652 | -81.30368 | 104 ft | 1 kts | 118° |
| 2026-04-21 00:52 | 28.43654 | -81.30374 | 104 ft | 0 kts | 109° |
| 2026-04-21 00:55 | 28.43664 | -81.30329 | 104 ft | 8 kts | 60° |
| 2026-04-21 00:56 | 28.43703 | -81.30275 | 104 ft | 11 kts | 47° |
| 2026-04-21 00:56 | 28.43752 | -81.30214 | 104 ft | 8 kts | 47° |
| 2026-04-21 00:56 | 28.43809 | -81.30172 | 104 ft | 12 kts | 14° |
| 2026-04-21 00:56 | 28.43879 | -81.30165 | 104 ft | 10 kts | 4° |
| 2026-04-21 00:57 | 28.43900 | -81.30130 | 104 ft | 7 kts | 81° |
| 2026-04-21 00:57 | 28.43901 | -81.30061 | 104 ft | 10 kts | 93° |
| 2026-04-21 00:57 | 28.43874 | -81.29940 | 104 ft | 19 kts | 117° |
| 2026-04-21 00:57 | 28.43780 | -81.29835 | 104 ft | 21 kts | 151° |
| 2026-04-21 00:58 | 28.43647 | -81.29811 | 104 ft | 16 kts | 178° |
| 2026-04-21 00:58 | 28.43543 | -81.29806 | 104 ft | 15 kts | 178° |
| 2026-04-21 00:58 | 28.43440 | -81.29803 | 104 ft | 14 kts | 179° |
| 2026-04-21 00:58 | 28.43326 | -81.29802 | 104 ft | 21 kts | 180° |
| 2026-04-21 00:59 | 28.43174 | -81.29800 | 104 ft | 22 kts | 179° |
| 2026-04-21 00:59 | 28.43025 | -81.29799 | 104 ft | 21 kts | 177° |
| 2026-04-21 00:59 | 28.42888 | -81.29795 | 104 ft | 19 kts | 180° |
| 2026-04-21 00:59 | 28.42743 | -81.29793 | 104 ft | 22 kts | 179° |
| 2026-04-21 01:00 | 28.42595 | -81.29791 | 104 ft | 22 kts | 182° |
| 2026-04-21 01:00 | 28.42430 | -81.29793 | 104 ft | 24 kts | 181° |
| 2026-04-21 01:00 | 28.42297 | -81.29792 | 104 ft | 16 kts | 179° |
| 2026-04-21 01:00 | 28.42167 | -81.29792 | 104 ft | 18 kts | 179° |
| 2026-04-21 01:01 | 28.42057 | -81.29790 | 104 ft | 17 kts | 179° |
| 2026-04-21 01:01 | 28.41923 | -81.29788 | 104 ft | 18 kts | 179° |
| 2026-04-21 01:01 | 28.41791 | -81.29785 | 104 ft | 21 kts | 179° |
| 2026-04-21 01:01 | 28.41634 | -81.29783 | 104 ft | 23 kts | 180° |
| 2026-04-21 01:02 | 28.41485 | -81.29781 | 104 ft | 18 kts | 179° |
| 2026-04-21 01:02 | 28.41372 | -81.29783 | 104 ft | 16 kts | 180° |
| 2026-04-21 01:02 | 28.41244 | -81.29782 | 104 ft | 17 kts | 179° |
| 2026-04-21 01:02 | 28.41115 | -81.29780 | 104 ft | 23 kts | 179° |
| 2026-04-21 01:03 | 28.40957 | -81.29779 | 104 ft | 19 kts | 179° |
| 2026-04-21 01:03 | 28.40857 | -81.29772 | 104 ft | 11 kts | 162° |
| 2026-04-21 01:03 | 28.40821 | -81.29699 | 104 ft | 7 kts | 91° |
| 2026-04-21 01:03 | 28.40821 | -81.29693 | 104 ft | 0 kts | 91° |
| 2026-04-21 01:04 | 28.40820 | -81.29683 | 104 ft | 7 kts | 91° |
| 2026-04-21 01:04 | 28.40824 | -81.29583 | 104 ft | 13 kts | 69° |
| 2026-04-21 01:04 | 28.40866 | -81.29560 | 104 ft | 2 kts | 1° |
| 2026-04-21 01:04 | 28.40869 | -81.29560 | 104 ft | 1 kts | 3° |
| 2026-04-21 01:05 | 28.41085 | -81.29558 | 104 ft | 67 kts | 0° |
| 2026-04-21 01:05 | 28.41783 | -81.29568 | 104 ft | 131 kts | 2° |
| 2026-04-21 01:05 | 28.42838 | -81.29584 | 468 ft | 158 kts | 358° |
| 2026-04-21 01:05 | 28.43981 | -81.29663 | 1182 ft | 176 kts | 356° |
| 2026-04-21 01:06 | 28.45297 | -81.29664 | 1659 ft | 203 kts | 6° |
| 2026-04-21 01:06 | 28.46697 | -81.29188 | 2059 ft | 218 kts | 30° |
| 2026-04-21 01:06 | 28.47895 | -81.28136 | 2826 ft | 217 kts | 39° |
| 2026-04-21 01:06 | 28.49122 | -81.27123 | 3568 ft | 220 kts | 36° |
| 2026-04-21 01:07 | 28.50392 | -81.26150 | 4226 ft | 225 kts | 34° |
| 2026-04-21 01:07 | 28.51836 | -81.25397 | 4872 ft | 233 kts | 19° |
| 2026-04-21 01:07 | 28.53439 | -81.25058 | 5611 ft | 237 kts | 8° |
| 2026-04-21 01:07 | 28.55107 | -81.25011 | 6330 ft | 243 kts | 359° |
| 2026-04-21 01:08 | 28.56834 | -81.25146 | 6775 ft | 255 kts | 359° |
| 2026-04-21 01:08 | 28.58643 | -81.25269 | 7019 ft | 264 kts | 357° |
| 2026-04-21 01:08 | 28.60510 | -81.25507 | 7660 ft | 271 kts | 353° |
| 2026-04-21 01:08 | 28.62377 | -81.25858 | 8501 ft | 274 kts | 351° |
| 2026-04-21 01:09 | 28.64273 | -81.26202 | 9263 ft | 277 kts | 353° |
| 2026-04-21 01:09 | 28.66198 | -81.26448 | 10099 ft | 278 kts | 354° |
| 2026-04-21 01:09 | 28.68138 | -81.26685 | 10799 ft | 284 kts | 353° |
| 2026-04-21 01:09 | 28.70146 | -81.26942 | 11300 ft | 298 kts | 353° |
| 2026-04-21 01:10 | 28.72272 | -81.27226 | 11650 ft | 316 kts | 352° |
| 2026-04-21 01:10 | 28.74491 | -81.27524 | 11967 ft | 333 kts | 352° |
| 2026-04-21 01:10 | 28.76835 | -81.27845 | 12513 ft | 342 kts | 352° |
| 2026-04-21 01:10 | 28.79213 | -81.28166 | 13208 ft | 346 kts | 351° |
| 2026-04-21 01:11 | 28.81618 | -81.28490 | 13947 ft | 349 kts | 351° |
| 2026-04-21 01:11 | 28.84044 | -81.28831 | 14668 ft | 353 kts | 351° |
| 2026-04-21 01:11 | 28.86504 | -81.29116 | 15396 ft | 357 kts | 353° |
| 2026-04-21 01:11 | 28.89005 | -81.29292 | 16103 ft | 361 kts | 353° |
| 2026-04-21 01:12 | 28.91524 | -81.29480 | 16798 ft | 364 kts | 352° |
| 2026-04-21 01:12 | 28.94066 | -81.29690 | 17467 ft | 368 kts | 352° |
| 2026-04-21 01:12 | 28.96629 | -81.29908 | 18106 ft | 371 kts | 351° |
| 2026-04-21 01:12 | 28.99186 | -81.30127 | 18724 ft | 375 kts | 351° |
| 2026-04-21 01:13 | 29.01801 | -81.30393 | 19335 ft | 378 kts | 349° |
| 2026-04-21 01:13 | 29.04425 | -81.30703 | 19945 ft | 381 kts | 349° |
| 2026-04-21 01:13 | 29.07085 | -81.31007 | 20538 ft | 384 kts | 349° |
| 2026-04-21 01:13 | 29.09758 | -81.31304 | 21093 ft | 388 kts | 349° |
| 2026-04-21 01:14 | 29.12458 | -81.31587 | 21655 ft | 391 kts | 350° |
| 2026-04-21 01:14 | 29.15197 | -81.31763 | 22174 ft | 396 kts | 351° |
| 2026-04-21 01:14 | 29.17966 | -81.31894 | 22679 ft | 399 kts | 351° |
| 2026-04-21 01:14 | 29.20719 | -81.32037 | 23155 ft | 402 kts | 351° |
| 2026-04-21 01:15 | 29.23527 | -81.32192 | 23655 ft | 404 kts | 350° |
| 2026-04-21 01:15 | 29.26356 | -81.32355 | 24111 ft | 408 kts | 350° |
| 2026-04-21 01:15 | 29.29195 | -81.32522 | 24590 ft | 410 kts | 350° |
| 2026-04-21 01:15 | 29.32055 | -81.32691 | 25049 ft | 412 kts | 349° |
| 2026-04-21 01:16 | 29.33949 | -81.32804 | 25370 ft | 413 kts | 349° |
| 2026-04-21 01:16 | 29.36831 | -81.32976 | 25823 ft | 415 kts | 349° |
| 2026-04-21 01:16 | 29.39718 | -81.33149 | 26218 ft | 418 kts | 349° |
| 2026-04-21 01:16 | 29.42625 | -81.33324 | 26650 ft | 419 kts | 349° |
| 2026-04-21 01:17 | 29.45546 | -81.33501 | 27078 ft | 420 kts | 349° |
| 2026-04-21 01:17 | 29.48474 | -81.33678 | 27470 ft | 423 kts | 348° |
| 2026-04-21 01:17 | 29.51417 | -81.33856 | 27840 ft | 425 kts | 348° |
| 2026-04-21 01:17 | 29.54375 | -81.34035 | 28214 ft | 426 kts | 348° |
| 2026-04-21 01:18 | 29.57343 | -81.34215 | 28573 ft | 428 kts | 348° |
| 2026-04-21 01:18 | 29.60324 | -81.34395 | 28929 ft | 430 kts | 348° |
| 2026-04-21 01:18 | 29.63316 | -81.34577 | 29268 ft | 431 kts | 348° |
| 2026-04-21 01:18 | 29.66325 | -81.34752 | 29551 ft | 434 kts | 348° |
| 2026-04-21 01:19 | 29.69349 | -81.34924 | 29919 ft | 435 kts | 347° |
| 2026-04-21 01:19 | 29.72364 | -81.35097 | 30339 ft | 434 kts | 347° |
| 2026-04-21 01:19 | 29.75386 | -81.35270 | 30631 ft | 436 kts | 347° |
| 2026-04-21 01:19 | 29.78421 | -81.35444 | 30946 ft | 437 kts | 347° |
| 2026-04-21 01:20 | 29.81461 | -81.35619 | 31316 ft | 437 kts | 347° |
| 2026-04-21 01:20 | 29.84498 | -81.35793 | 31646 ft | 438 kts | 347° |
| 2026-04-21 01:20 | 29.87548 | -81.35969 | 31928 ft | 439 kts | 347° |
| 2026-04-21 01:20 | 29.90600 | -81.36144 | 32263 ft | 440 kts | 347° |
| 2026-04-21 01:21 | 29.93631 | -81.36319 | 32525 ft | 442 kts | 347° |
| 2026-04-21 01:21 | 29.96700 | -81.36495 | 32830 ft | 442 kts | 346° |
| 2026-04-21 01:21 | 29.99785 | -81.36673 | 33154 ft | 443 kts | 346° |
| 2026-04-21 01:21 | 30.02857 | -81.36848 | 33580 ft | 440 kts | 346° |
| 2026-04-21 01:22 | 30.05916 | -81.37024 | 33884 ft | 440 kts | 346° |
| 2026-04-21 01:22 | 30.08991 | -81.37202 | 34168 ft | 441 kts | 346° |
| 2026-04-21 01:22 | 30.12047 | -81.37378 | 34556 ft | 439 kts | 346° |
| 2026-04-21 01:22 | 30.15087 | -81.37553 | 35036 ft | 435 kts | 346° |
| 2026-04-21 01:23 | 30.18092 | -81.37726 | 35461 ft | 432 kts | 345° |
| 2026-04-21 01:23 | 30.21047 | -81.37897 | 35788 ft | 431 kts | 345° |
| 2026-04-21 01:23 | 30.24036 | -81.38070 | 36129 ft | 429 kts | 345° |
| 2026-04-21 01:23 | 30.27008 | -81.38243 | 36529 ft | 426 kts | 345° |
| 2026-04-21 01:24 | 30.29948 | -81.38413 | 36918 ft | 423 kts | 345° |
| 2026-04-21 01:24 | 30.32890 | -81.38584 | 37251 ft | 421 kts | 345° |
| 2026-04-21 01:24 | 30.38788 | -81.38927 | 37309 ft | 428 kts | 345° |
| 2026-04-21 01:25 | 30.44750 | -81.39273 | 37310 ft | 429 kts | 345° |
| 2026-04-21 01:25 | 30.50702 | -81.39598 | 37314 ft | 428 kts | 346° |
| 2026-04-21 01:26 | 30.56652 | -81.39914 | 37317 ft | 428 kts | 346° |
| 2026-04-21 01:26 | 30.62553 | -81.40230 | 37319 ft | 427 kts | 346° |
| 2026-04-21 01:27 | 30.68488 | -81.40548 | 37320 ft | 426 kts | 345° |
| 2026-04-21 01:27 | 30.74396 | -81.40864 | 37319 ft | 425 kts | 345° |
| 2026-04-21 01:28 | 30.80314 | -81.41182 | 37317 ft | 425 kts | 345° |
| 2026-04-21 01:28 | 30.86223 | -81.41498 | 37314 ft | 425 kts | 345° |
| 2026-04-21 01:29 | 30.92137 | -81.41815 | 37311 ft | 425 kts | 345° |
| 2026-04-21 01:29 | 30.98046 | -81.42132 | 37309 ft | 425 kts | 345° |
| 2026-04-21 01:30 | 31.03953 | -81.42450 | 37306 ft | 424 kts | 345° |
| 2026-04-21 01:30 | 31.09832 | -81.42768 | 37304 ft | 423 kts | 345° |
| 2026-04-21 01:31 | 31.15725 | -81.43087 | 37303 ft | 423 kts | 345° |
| 2026-04-21 01:31 | 31.21608 | -81.43358 | 37304 ft | 429 kts | 349° |
| 2026-04-21 01:32 | 31.24627 | -81.43010 | 37312 ft | 444 kts | 358° |
| 2026-04-21 01:32 | 31.27663 | -81.42095 | 37317 ft | 459 kts | 6° |
| 2026-04-21 01:32 | 31.33627 | -81.39117 | 37315 ft | 470 kts | 13° |
| 2026-04-21 01:33 | 31.39489 | -81.35869 | 37315 ft | 468 kts | 12° |
| 2026-04-21 01:33 | 31.45400 | -81.32657 | 37311 ft | 469 kts | 12° |
| 2026-04-21 01:34 | 31.51328 | -81.29424 | 37305 ft | 471 kts | 12° |
| 2026-04-21 01:34 | 31.57276 | -81.26176 | 37298 ft | 470 kts | 12° |
| 2026-04-21 01:35 | 31.63177 | -81.22949 | 37293 ft | 470 kts | 12° |
| 2026-04-21 01:35 | 31.69105 | -81.19704 | 37289 ft | 468 kts | 12° |
| 2026-04-21 01:36 | 31.75019 | -81.16485 | 37289 ft | 468 kts | 12° |
| 2026-04-21 01:36 | 31.80930 | -81.13245 | 37283 ft | 469 kts | 12° |
| 2026-04-21 01:37 | 31.86839 | -81.09996 | 37276 ft | 469 kts | 12° |
| 2026-04-21 01:37 | 31.92747 | -81.06742 | 37275 ft | 469 kts | 12° |
| 2026-04-21 01:38 | 31.98622 | -81.03507 | 37274 ft | 469 kts | 12° |
| 2026-04-21 01:38 | 32.04515 | -81.00225 | 37279 ft | 466 kts | 13° |
| 2026-04-21 01:39 | 32.10361 | -80.96950 | 37289 ft | 465 kts | 13° |
| 2026-04-21 01:39 | 32.16222 | -80.93660 | 37294 ft | 466 kts | 13° |
| 2026-04-21 01:40 | 32.22067 | -80.90375 | 37305 ft | 465 kts | 13° |
| 2026-04-21 01:40 | 32.27921 | -80.87081 | 37312 ft | 465 kts | 13° |
| 2026-04-21 01:41 | 32.33739 | -80.83818 | 37311 ft | 465 kts | 13° |
| 2026-04-21 01:41 | 32.39586 | -80.80535 | 37306 ft | 465 kts | 13° |
| 2026-04-21 01:42 | 32.45443 | -80.77248 | 37302 ft | 465 kts | 13° |
| 2026-04-21 01:42 | 32.51291 | -80.73946 | 37300 ft | 466 kts | 13° |
| 2026-04-21 01:43 | 32.57142 | -80.70629 | 37301 ft | 465 kts | 13° |
| 2026-04-21 01:43 | 32.62967 | -80.67322 | 37301 ft | 464 kts | 13° |
| 2026-04-21 01:44 | 32.68713 | -80.63870 | 37302 ft | 474 kts | 19° |
| 2026-04-21 01:44 | 32.71459 | -80.61602 | 37304 ft | 486 kts | 27° |
| 2026-04-21 01:44 | 32.74020 | -80.58903 | 37304 ft | 498 kts | 34° |
| 2026-04-21 01:45 | 32.78674 | -80.52662 | 37306 ft | 506 kts | 39° |
| 2026-04-21 01:45 | 32.83242 | -80.46318 | 37305 ft | 505 kts | 38° |
| 2026-04-21 01:46 | 32.87849 | -80.40008 | 37303 ft | 503 kts | 38° |
| 2026-04-21 01:46 | 32.92409 | -80.33783 | 37298 ft | 502 kts | 38° |
| 2026-04-21 01:47 | 32.97019 | -80.27543 | 37294 ft | 501 kts | 38° |
| 2026-04-21 01:47 | 33.01618 | -80.21296 | 37293 ft | 501 kts | 38° |
| 2026-04-21 01:48 | 33.06198 | -80.15048 | 37294 ft | 500 kts | 38° |
| 2026-04-21 01:48 | 33.10761 | -80.08808 | 37297 ft | 499 kts | 39° |
| 2026-04-21 01:49 | 33.15322 | -80.02571 | 37299 ft | 498 kts | 38° |
| 2026-04-21 01:49 | 33.19888 | -79.96333 | 37300 ft | 499 kts | 39° |
| 2026-04-21 01:50 | 33.24416 | -79.90095 | 37299 ft | 499 kts | 39° |
| 2026-04-21 01:50 | 33.28959 | -79.83821 | 37297 ft | 498 kts | 39° |
| 2026-04-21 01:51 | 33.33491 | -79.77558 | 37296 ft | 498 kts | 39° |
| 2026-04-21 01:51 | 33.38023 | -79.71287 | 37294 ft | 498 kts | 39° |
| 2026-04-21 01:52 | 33.44780 | -79.61913 | 37295 ft | 496 kts | 39° |
| 2026-04-21 01:53 | 33.49302 | -79.55680 | 37298 ft | 496 kts | 39° |
| 2026-04-21 01:53 | 33.53813 | -79.49421 | 37297 ft | 496 kts | 40° |
| 2026-04-21 01:54 | 33.58308 | -79.43145 | 37298 ft | 496 kts | 40° |
| 2026-04-21 01:54 | 33.62780 | -79.36889 | 37299 ft | 498 kts | 40° |
| 2026-04-21 01:55 | 33.67289 | -79.30579 | 37298 ft | 497 kts | 40° |
| 2026-04-21 01:55 | 33.71793 | -79.24267 | 37296 ft | 497 kts | 40° |
| 2026-04-21 01:56 | 33.76295 | -79.17941 | 37298 ft | 498 kts | 40° |
| 2026-04-21 01:56 | 33.80792 | -79.11607 | 37299 ft | 498 kts | 40° |
| 2026-04-21 01:57 | 33.85293 | -79.05254 | 37299 ft | 499 kts | 40° |
| 2026-04-21 01:57 | 33.89772 | -78.98924 | 37297 ft | 499 kts | 40° |
| 2026-04-21 01:58 | 33.94293 | -78.92592 | 37293 ft | 499 kts | 40° |
| 2026-04-21 01:58 | 33.98799 | -78.86236 | 37285 ft | 500 kts | 40° |
| 2026-04-21 01:59 | 34.03302 | -78.79859 | 37283 ft | 497 kts | 41° |
| 2026-04-21 01:59 | 34.07777 | -78.73547 | 37283 ft | 493 kts | 41° |
| 2026-04-21 02:00 | 34.12224 | -78.67219 | 37285 ft | 495 kts | 41° |
| 2026-04-21 02:00 | 34.16674 | -78.60860 | 37286 ft | 496 kts | 41° |
| 2026-04-21 02:01 | 34.21121 | -78.54498 | 37287 ft | 496 kts | 41° |
| 2026-04-21 02:01 | 34.25644 | -78.48315 | 37288 ft | 489 kts | 36° |
| 2026-04-21 02:02 | 34.30674 | -78.42816 | 37287 ft | 486 kts | 32° |
| 2026-04-21 02:02 | 34.35756 | -78.37401 | 37284 ft | 486 kts | 33° |
| 2026-04-21 02:03 | 34.40827 | -78.31971 | 37283 ft | 486 kts | 33° |
| 2026-04-21 02:03 | 34.45896 | -78.26528 | 37282 ft | 486 kts | 33° |
| 2026-04-21 02:04 | 34.50920 | -78.21125 | 37282 ft | 486 kts | 32° |
| 2026-04-21 02:04 | 34.56000 | -78.15703 | 37281 ft | 485 kts | 33° |
| 2026-04-21 02:05 | 34.61050 | -78.10274 | 37281 ft | 485 kts | 33° |
| 2026-04-21 02:05 | 34.65252 | -78.05770 | 37281 ft | 485 kts | 33° |
| 2026-04-21 02:06 | 34.70285 | -78.00338 | 37280 ft | 484 kts | 33° |
| 2026-04-21 02:06 | 34.75323 | -77.94873 | 37280 ft | 487 kts | 33° |
| 2026-04-21 02:07 | 34.80372 | -77.89385 | 37281 ft | 486 kts | 33° |
| 2026-04-21 02:07 | 34.85414 | -77.83904 | 37284 ft | 485 kts | 33° |
| 2026-04-21 02:08 | 34.90504 | -77.78522 | 37294 ft | 483 kts | 31° |
| 2026-04-21 02:08 | 34.95664 | -77.73260 | 37296 ft | 483 kts | 32° |
| 2026-04-21 02:09 | 35.00782 | -77.67958 | 37297 ft | 483 kts | 32° |
| 2026-04-21 02:09 | 35.05894 | -77.62641 | 37301 ft | 483 kts | 32° |
| 2026-04-21 02:10 | 35.10972 | -77.57353 | 37302 ft | 481 kts | 32° |
| 2026-04-21 02:10 | 35.16292 | -77.52502 | 37305 ft | 472 kts | 24° |
| 2026-04-21 02:11 | 35.21885 | -77.48318 | 37308 ft | 471 kts | 23° |
| 2026-04-21 02:11 | 35.27486 | -77.44141 | 37308 ft | 471 kts | 23° |
| 2026-04-21 02:12 | 35.33061 | -77.39963 | 37308 ft | 470 kts | 23° |
| 2026-04-21 02:12 | 35.38652 | -77.35766 | 37314 ft | 470 kts | 24° |
| 2026-04-21 02:13 | 35.44213 | -77.31630 | 37316 ft | 470 kts | 23° |
| 2026-04-21 02:13 | 35.49800 | -77.27436 | 37318 ft | 471 kts | 24° |
| 2026-04-21 02:14 | 35.55386 | -77.23220 | 37322 ft | 471 kts | 24° |
| 2026-04-21 02:14 | 35.60972 | -77.18995 | 37329 ft | 471 kts | 24° |
| 2026-04-21 02:15 | 35.66558 | -77.14768 | 37335 ft | 471 kts | 24° |
| 2026-04-21 02:15 | 35.72151 | -77.10526 | 37339 ft | 472 kts | 24° |
| 2026-04-21 02:16 | 35.77747 | -77.06290 | 37343 ft | 472 kts | 24° |
| 2026-04-21 02:16 | 35.83304 | -77.02057 | 37348 ft | 473 kts | 24° |
| 2026-04-21 02:17 | 35.88912 | -76.97779 | 37351 ft | 474 kts | 24° |
| 2026-04-21 02:17 | 35.94567 | -76.93619 | 37354 ft | 472 kts | 21° |
| 2026-04-21 02:18 | 36.00358 | -76.89833 | 37355 ft | 470 kts | 21° |
| 2026-04-21 02:18 | 36.06120 | -76.86041 | 37360 ft | 469 kts | 21° |
| 2026-04-21 02:19 | 36.11895 | -76.82198 | 37362 ft | 473 kts | 22° |
| 2026-04-21 02:19 | 36.17691 | -76.78321 | 37363 ft | 472 kts | 22° |
| 2026-04-21 02:20 | 36.23480 | -76.74460 | 37365 ft | 473 kts | 21° |
| 2026-04-21 02:20 | 36.29227 | -76.70632 | 37365 ft | 471 kts | 22° |
| 2026-04-21 02:21 | 36.34999 | -76.66766 | 37371 ft | 471 kts | 22° |
| 2026-04-21 02:21 | 36.40784 | -76.62880 | 37374 ft | 473 kts | 22° |
| 2026-04-21 02:22 | 36.46576 | -76.58980 | 37375 ft | 472 kts | 22° |
| 2026-04-21 02:22 | 36.52357 | -76.55080 | 37375 ft | 472 kts | 22° |
| 2026-04-21 02:23 | 36.58101 | -76.51199 | 37383 ft | 472 kts | 22° |
| 2026-04-21 02:23 | 36.63872 | -76.47292 | 37385 ft | 471 kts | 22° |
| 2026-04-21 02:24 | 36.69632 | -76.43386 | 37382 ft | 472 kts | 22° |
| 2026-04-21 02:24 | 36.75398 | -76.39469 | 37380 ft | 472 kts | 22° |
| 2026-04-21 02:25 | 36.81154 | -76.35553 | 37377 ft | 471 kts | 22° |
| 2026-04-21 02:25 | 36.86914 | -76.31626 | 37369 ft | 471 kts | 22° |
| 2026-04-21 02:26 | 36.92665 | -76.27699 | 37361 ft | 471 kts | 22° |
| 2026-04-21 02:26 | 36.98416 | -76.23765 | 37360 ft | 471 kts | 22° |
| 2026-04-21 02:27 | 37.04131 | -76.19849 | 37360 ft | 470 kts | 22° |
| 2026-04-21 02:27 | 37.09870 | -76.15909 | 37363 ft | 470 kts | 22° |
| 2026-04-21 02:28 | 37.15620 | -76.11955 | 37363 ft | 470 kts | 22° |
| 2026-04-21 02:28 | 37.21354 | -76.08005 | 37363 ft | 471 kts | 22° |
| 2026-04-21 02:29 | 37.27094 | -76.04059 | 37367 ft | 469 kts | 22° |
| 2026-04-21 02:29 | 37.32828 | -76.00105 | 37372 ft | 470 kts | 22° |
| 2026-04-21 02:30 | 37.38555 | -75.96131 | 37377 ft | 474 kts | 22° |
| 2026-04-21 02:30 | 37.44346 | -75.92105 | 37378 ft | 475 kts | 22° |
| 2026-04-21 02:31 | 37.50131 | -75.88079 | 37378 ft | 473 kts | 22° |
| 2026-04-21 02:31 | 37.55875 | -75.84052 | 37379 ft | 474 kts | 24° |
| 2026-04-21 02:32 | 37.61509 | -75.79776 | 37380 ft | 475 kts | 25° |
| 2026-04-21 02:32 | 37.67165 | -75.75491 | 37380 ft | 474 kts | 25° |
| 2026-04-21 02:33 | 37.72824 | -75.71211 | 37381 ft | 474 kts | 25° |
| 2026-04-21 02:33 | 37.78483 | -75.66930 | 37383 ft | 474 kts | 25° |
| 2026-04-21 02:34 | 37.84151 | -75.62638 | 37386 ft | 474 kts | 25° |
| 2026-04-21 02:34 | 37.89631 | -75.58006 | 37389 ft | 478 kts | 29° |
| 2026-04-21 02:35 | 37.95102 | -75.53185 | 37390 ft | 478 kts | 28° |
| 2026-04-21 02:35 | 38.00596 | -75.48398 | 37389 ft | 479 kts | 28° |
| 2026-04-21 02:36 | 38.06163 | -75.43897 | 37389 ft | 472 kts | 21° |
| 2026-04-21 02:36 | 38.12076 | -75.40310 | 37388 ft | 470 kts | 18° |
| 2026-04-21 02:37 | 38.18025 | -75.36835 | 37388 ft | 470 kts | 19° |
| 2026-04-21 02:37 | 38.23974 | -75.33341 | 37387 ft | 471 kts | 19° |
| 2026-04-21 02:38 | 38.29968 | -75.29832 | 36910 ft | 475 kts | 18° |
| 2026-04-21 02:38 | 38.32962 | -75.28084 | 36193 ft | 474 kts | 19° |
| 2026-04-21 02:38 | 38.35950 | -75.26328 | 35428 ft | 473 kts | 19° |
| 2026-04-21 02:38 | 38.38904 | -75.24583 | 34660 ft | 472 kts | 19° |
| 2026-04-21 02:39 | 38.41884 | -75.22821 | 33871 ft | 471 kts | 18° |
| 2026-04-21 02:39 | 38.44856 | -75.21060 | 33064 ft | 470 kts | 18° |
| 2026-04-21 02:39 | 38.47813 | -75.19306 | 32240 ft | 469 kts | 18° |
| 2026-04-21 02:39 | 38.50768 | -75.17552 | 31396 ft | 467 kts | 18° |
| 2026-04-21 02:40 | 38.53713 | -75.15805 | 30611 ft | 464 kts | 18° |
| 2026-04-21 02:40 | 38.56623 | -75.14078 | 29982 ft | 458 kts | 18° |
| 2026-04-21 02:40 | 38.59490 | -75.12333 | 29372 ft | 455 kts | 20° |
| 2026-04-21 02:40 | 38.62293 | -75.10515 | 28772 ft | 450 kts | 20° |
| 2026-04-21 02:41 | 38.65071 | -75.08707 | 28172 ft | 445 kts | 20° |
| 2026-04-21 02:41 | 38.67821 | -75.06935 | 27576 ft | 440 kts | 20° |
| 2026-04-21 02:41 | 38.70544 | -75.05194 | 26982 ft | 435 kts | 20° |
| 2026-04-21 02:41 | 38.73236 | -75.03468 | 26391 ft | 431 kts | 20° |
| 2026-04-21 02:42 | 38.75902 | -75.01755 | 25801 ft | 426 kts | 20° |
| 2026-04-21 02:42 | 38.78540 | -75.00058 | 25215 ft | 422 kts | 20° |
| 2026-04-21 02:42 | 38.81149 | -74.98382 | 24634 ft | 417 kts | 20° |
| 2026-04-21 02:42 | 38.83733 | -74.96743 | 24059 ft | 412 kts | 20° |
| 2026-04-21 02:43 | 38.86292 | -74.95102 | 23486 ft | 408 kts | 21° |
| 2026-04-21 02:43 | 38.88815 | -74.93477 | 22919 ft | 404 kts | 21° |
| 2026-04-21 02:43 | 38.91315 | -74.91863 | 22355 ft | 400 kts | 21° |
| 2026-04-21 02:43 | 38.93789 | -74.90261 | 21795 ft | 397 kts | 21° |
| 2026-04-21 02:44 | 38.96243 | -74.88671 | 21238 ft | 393 kts | 21° |
| 2026-04-21 02:44 | 38.98670 | -74.87098 | 20687 ft | 390 kts | 21° |
| 2026-04-21 02:44 | 39.01084 | -74.85532 | 20137 ft | 386 kts | 21° |
| 2026-04-21 02:44 | 39.03444 | -74.84000 | 19599 ft | 383 kts | 21° |
| 2026-04-21 02:45 | 39.05815 | -74.82462 | 19059 ft | 380 kts | 21° |
| 2026-04-21 02:45 | 39.08253 | -74.81294 | 18526 ft | 368 kts | 7° |
| 2026-04-21 02:45 | 39.10755 | -74.81085 | 18002 ft | 356 kts | 351° |
| 2026-04-21 02:45 | 39.13188 | -74.81587 | 17364 ft | 354 kts | 344° |
| 2026-04-21 02:46 | 39.15583 | -74.82293 | 16804 ft | 351 kts | 342° |
| 2026-04-21 02:46 | 39.17922 | -74.83130 | 16274 ft | 347 kts | 340° |
| 2026-04-21 02:46 | 39.20231 | -74.84016 | 15733 ft | 345 kts | 340° |
| 2026-04-21 02:46 | 39.22529 | -74.84892 | 15193 ft | 344 kts | 339° |
| 2026-04-21 02:47 | 39.24818 | -74.85760 | 14672 ft | 342 kts | 339° |
| 2026-04-21 02:47 | 39.27093 | -74.86623 | 14150 ft | 340 kts | 339° |
| 2026-04-21 02:47 | 39.29354 | -74.87478 | 13613 ft | 338 kts | 339° |
| 2026-04-21 02:47 | 39.31613 | -74.88333 | 13085 ft | 337 kts | 339° |
| 2026-04-21 02:48 | 39.33866 | -74.89184 | 12572 ft | 335 kts | 339° |
| 2026-04-21 02:48 | 39.36075 | -74.90019 | 11945 ft | 337 kts | 339° |
| 2026-04-21 02:48 | 39.38328 | -74.90870 | 11419 ft | 336 kts | 340° |
| 2026-04-21 02:48 | 39.40566 | -74.91714 | 10916 ft | 333 kts | 340° |
| 2026-04-21 02:49 | 39.42778 | -74.92550 | 10445 ft | 330 kts | 340° |
| 2026-04-21 02:49 | 39.44955 | -74.93376 | 10307 ft | 317 kts | 341° |
| 2026-04-21 02:49 | 39.47017 | -74.94156 | 10237 ft | 298 kts | 341° |
| 2026-04-21 02:49 | 39.48898 | -74.94864 | 10166 ft | 271 kts | 341° |
| 2026-04-21 02:50 | 39.50677 | -74.95535 | 10108 ft | 260 kts | 340° |
| 2026-04-21 02:50 | 39.52379 | -74.96188 | 10041 ft | 250 kts | 339° |
| 2026-04-21 02:50 | 39.53959 | -74.97062 | 9999 ft | 248 kts | 329° |
| 2026-04-21 02:50 | 39.55456 | -74.98244 | 9759 ft | 255 kts | 324° |
| 2026-04-21 02:51 | 39.56919 | -74.99578 | 9507 ft | 260 kts | 322° |
| 2026-04-21 02:51 | 39.58382 | -75.00969 | 9251 ft | 259 kts | 322° |
| 2026-04-21 02:51 | 39.59836 | -75.02339 | 9004 ft | 257 kts | 323° |
| 2026-04-21 02:51 | 39.60792 | -75.03235 | 8843 ft | 256 kts | 323° |
| 2026-04-21 02:52 | 39.62691 | -75.05015 | 8527 ft | 252 kts | 323° |
| 2026-04-21 02:52 | 39.64106 | -75.06337 | 8296 ft | 250 kts | 323° |
| 2026-04-21 02:52 | 39.65516 | -75.07655 | 8057 ft | 249 kts | 324° |
| 2026-04-21 02:52 | 39.67036 | -75.08722 | 7819 ft | 250 kts | 342° |
| 2026-04-21 02:53 | 39.68194 | -75.08988 | 7665 ft | 251 kts | 353° |
| 2026-04-21 02:53 | 39.69913 | -75.08998 | 7429 ft | 251 kts | 0° |
| 2026-04-21 02:53 | 39.71644 | -75.08733 | 7184 ft | 251 kts | 10° |
| 2026-04-21 02:53 | 39.73240 | -75.07796 | 7006 ft | 255 kts | 30° |
| 2026-04-21 02:54 | 39.74599 | -75.06275 | 6746 ft | 260 kts | 42° |
| 2026-04-21 02:54 | 39.75794 | -75.04505 | 6502 ft | 260 kts | 46° |
| 2026-04-21 02:54 | 39.76953 | -75.02705 | 6264 ft | 258 kts | 45° |
| 2026-04-21 02:54 | 39.78129 | -75.00959 | 6025 ft | 255 kts | 44° |
| 2026-04-21 02:55 | 39.79301 | -74.99263 | 5799 ft | 251 kts | 44° |
| 2026-04-21 02:55 | 39.80468 | -74.97593 | 5576 ft | 247 kts | 44° |
| 2026-04-21 02:55 | 39.81615 | -74.95959 | 5352 ft | 241 kts | 43° |
| 2026-04-21 02:55 | 39.82700 | -74.94391 | 5128 ft | 226 kts | 47° |
| 2026-04-21 02:56 | 39.83494 | -74.92663 | 4990 ft | 225 kts | 61° |
| 2026-04-21 02:56 | 39.84514 | -74.88852 | 4616 ft | 220 kts | 70° |
| 2026-04-21 02:56 | 39.84864 | -74.86903 | 4390 ft | 223 kts | 75° |
| 2026-04-21 02:57 | 39.85183 | -74.84916 | 4120 ft | 224 kts | 71° |
| 2026-04-21 02:57 | 39.85676 | -74.83007 | 3834 ft | 219 kts | 56° |
| 2026-04-21 02:57 | 39.86752 | -74.81758 | 3563 ft | 203 kts | 23° |
| 2026-04-21 02:57 | 39.88042 | -74.81073 | 3302 ft | 198 kts | 18° |
| 2026-04-21 02:58 | 39.89321 | -74.80461 | 3054 ft | 193 kts | 13° |
| 2026-04-21 02:58 | 39.90589 | -74.80584 | 2941 ft | 184 kts | 331° |
| 2026-04-21 02:58 | 39.91352 | -74.81859 | 2964 ft | 182 kts | 294° |
| 2026-04-21 02:58 | 39.91558 | -74.83490 | 2997 ft | 186 kts | 278° |
| 2026-04-21 02:59 | 39.91645 | -74.85175 | 3010 ft | 189 kts | 278° |
| 2026-04-21 02:59 | 39.91731 | -74.86911 | 3020 ft | 195 kts | 278° |
| 2026-04-21 02:59 | 39.91816 | -74.88661 | 3015 ft | 198 kts | 278° |
| 2026-04-21 02:59 | 39.91900 | -74.90453 | 3015 ft | 197 kts | 278° |
| 2026-04-21 03:00 | 39.91984 | -74.92234 | 3002 ft | 197 kts | 278° |
| 2026-04-21 03:00 | 39.92068 | -74.94031 | 3003 ft | 199 kts | 277° |
| 2026-04-21 03:00 | 39.92151 | -74.95825 | 3002 ft | 198 kts | 277° |
| 2026-04-21 03:00 | 39.92232 | -74.97609 | 3005 ft | 197 kts | 276° |
| 2026-04-21 03:01 | 39.92112 | -74.99382 | 2994 ft | 194 kts | 264° |
| 2026-04-21 03:01 | 39.91793 | -75.01028 | 2976 ft | 182 kts | 260° |
| 2026-04-21 03:01 | 39.91467 | -75.02575 | 2947 ft | 174 kts | 261° |
| 2026-04-21 03:01 | 39.91159 | -75.04080 | 2823 ft | 170 kts | 261° |
| 2026-04-21 03:02 | 39.90866 | -75.05533 | 2615 ft | 168 kts | 261° |
| 2026-04-21 03:02 | 39.90568 | -75.07020 | 2392 ft | 170 kts | 261° |
| 2026-04-21 03:02 | 39.90272 | -75.08505 | 2169 ft | 168 kts | 261° |
| 2026-04-21 03:02 | 39.89985 | -75.09938 | 1931 ft | 160 kts | 261° |
| 2026-04-21 03:03 | 39.89714 | -75.11300 | 1737 ft | 153 kts | 261° |
| 2026-04-21 03:03 | 39.89449 | -75.12626 | 1539 ft | 151 kts | 261° |
| 2026-04-21 03:03 | 39.89187 | -75.13943 | 1337 ft | 150 kts | 260° |
| 2026-04-21 03:03 | 39.88924 | -75.15263 | 1140 ft | 151 kts | 260° |
| 2026-04-21 03:04 | 39.88660 | -75.16587 | 964 ft | 146 kts | 260° |
| 2026-04-21 03:04 | 39.88414 | -75.17819 | 744 ft | 138 kts | 260° |
| 2026-04-21 03:04 | 39.88175 | -75.19017 | 562 ft | 136 kts | 260° |
| 2026-04-21 03:04 | 39.87934 | -75.20222 | 393 ft | 139 kts | 260° |
| 2026-04-21 03:05 | 39.87691 | -75.21443 | 231 ft | 137 kts | 258° |
| 2026-04-21 03:05 | 39.87457 | -75.22580 | 72 ft | 127 kts | 264° |
| 2026-04-21 03:05 | 39.87263 | -75.23647 | 45 ft | 113 kts | 255° |
| 2026-04-21 03:05 | 39.87103 | -75.24428 | 44 ft | 66 kts | 256° |
| 2026-04-21 03:06 | 39.87001 | -75.24907 | 44 ft | 45 kts | 256° |
| 2026-04-21 03:06 | 39.86935 | -75.25248 | 44 ft | 32 kts | 254° |
| 2026-04-21 03:06 | 39.86932 | -75.25441 | 44 ft | 14 kts | 313° |
| 2026-04-21 03:06 | 39.86982 | -75.25469 | 44 ft | 0 kts | 0° |
| 2026-04-21 03:07 | 39.86984 | -75.25468 | 44 ft | 1 kts | 9° |
| 2026-04-21 03:07 | 39.87002 | -75.25443 | 44 ft | 11 kts | 58° |
| 2026-04-21 03:07 | 39.87031 | -75.25316 | 44 ft | 20 kts | 75° |
| 2026-04-21 03:08 | 39.87064 | -75.25137 | 44 ft | 17 kts | 81° |
| 2026-04-21 03:08 | 39.87096 | -75.24982 | 44 ft | 25 kts | 71° |
| 2026-04-21 03:08 | 39.87140 | -75.24776 | 44 ft | 26 kts | 75° |
| 2026-04-21 03:08 | 39.87188 | -75.24518 | 44 ft | 27 kts | 79° |
| 2026-04-21 03:09 | 39.87227 | -75.24294 | 44 ft | 25 kts | 77° |
| 2026-04-21 03:09 | 39.87273 | -75.24076 | 44 ft | 29 kts | 74° |
| 2026-04-21 03:09 | 39.87337 | -75.23873 | 44 ft | 16 kts | 6° |
| 2026-04-21 03:09 | 39.87410 | -75.23802 | 44 ft | 18 kts | 76° |
| 2026-04-21 03:10 | 39.87472 | -75.23673 | 44 ft | 16 kts | 40° |
| 2026-04-21 03:10 | 39.87546 | -75.23592 | 44 ft | 10 kts | 38° |
| 2026-04-21 03:10 | 39.87627 | -75.23543 | 44 ft | 13 kts | 18° |
| 2026-04-21 03:10 | 39.87685 | -75.23526 | 44 ft | 4 kts | 10° |
| 2026-04-21 03:11 | 39.87748 | -75.23497 | 44 ft | 19 kts | 20° |
| 2026-04-21 03:11 | 39.87856 | -75.23455 | 44 ft | 11 kts | 348° |
| 2026-04-21 03:11 | 39.87903 | -75.23515 | 44 ft | 16 kts | 289° |
| 2026-04-21 03:11 | 39.87938 | -75.23641 | 44 ft | 11 kts | 289° |
| 2026-04-21 03:12 | 39.87957 | -75.23701 | 44 ft | 2 kts | 328° |
| 2026-04-21 03:12 | 39.87959 | -75.23702 | 44 ft | 0 kts | 341° |
| 2026-04-21 03:12 | 39.87971 | -75.23698 | 44 ft | 6 kts | 24° |
| 2026-04-21 03:12 | 39.88004 | -75.23688 | 44 ft | 7 kts | 14° |
| 2026-04-21 03:13 | 39.88013 | -75.23685 | 44 ft | 0 kts | 19° |